Nouasseur, Morocco
Current Conditions -  °F | °C
As of 7:00 AM on Friday 31 Oct 2014 (Local Time) from GMMN Reporting Station
Clear Clear  
Wind Chill: 57°   Ceiling: Unl
Heat Index: 57°   Visibility: 6mi
Dew Point: 37°   Wind: 3mph
Humidity: 48%   Direction: 140°SE
Pressure: 30.03"   Gusts: NA
Location:  33.37°N, 7.58°W
Report Text: GMMN 310600Z 14003KT CAVOK 14/03 Q1017 NOSIG
Loading
Personal Weather Stations






























Interactive Weather Map New forecast layout! Learn more

10-Day Weather Forecast

Advertisements
Track Severe Weather on mobile